首页
METAR-TAF:

METAR-TAF

机场 :

雅典, 喬治亞, 美国

纬度: 33-57-03N, 经度: 083-19-41W, 海拔: 246米

当前天气观测

该预报发布于1小时和8分钟前的11:51 UTC
静风
温度 6°C
湿度 93%
气压 1020 hPa
能見度: 0.8公里

METAR: KAHN 171151Z AUTO 00000KT 1/2SM FG VV002 06/05 A3012 RMK AO2 SLP203 70021 T00610050 10072 20061 53009

时间: 07:59 (12:59 UTC)

预报

该预报发布于1小时和16分钟前的11:43 UTC
预报有效从17日的 12点(UTC)到 18日的 12点(UTC)
风速节,风向
能見度: 1.6公里
阴天层高于200英尺
小毛毛雨, 轻雾
短暂存在
从 17日的 12点(UTC)到 17日的 14点(UTC)
能見度: 0.4公里
阴天层高于100英尺
从 17日的 1500点(UTC)
风速5节,风向东转东北
能見度: 10公里
多云层高于600英尺
从 17日的 1800点(UTC)
风速5节,风向
能見度: 10公里
多云层高于800英尺
从 17日的 2100点(UTC)
风速5节,风向
能見度: 10公里
多云层高于1500英尺
从 18日的 0200点(UTC)
风速4节,风向
能見度: 8.0公里
多云层高于800英尺
轻雾, 附近有阵雨
从 18日的 0400点(UTC)
风速3节,风向
能見度: 6.4公里
阴天层高于300英尺
轻雾, 附近有阵雨

TAF: KAHN 171143Z 1712/1812 00000KT 1SM -DZ BR OVC002 TEMPO 1712/1714 1/4SM FG OVC001 FM171500 07005KT P6SM BKN006 FM171800 09005KT P6SM BKN008 FM172100 10005KT P6SM BKN015 FM180200 09004KT 5SM BR VCSH BKN008 FM180400 09003KT 4SM BR VCSH OVC003

超过4000个机场的气象观测和天气预报(METAR&TAF报告)。

可查询的气象台以黄色和红色小点在地图上表示。

将鼠标移到小点上方,可查看气象台名称。

然后点击查看天气观测和预报。

如需切换地图:点击带黑十字的绿色按钮放大地图;点击带横线的绿色按钮缩小地图;或者点击绿色箭头查看邻近地区的地图。


METAR-TAF: